Ontario International Airport
KONT : now visible

Airfield :











YOU CAN JOIN US ON...

 
LOGIN :

Register | Disclaimer

   EN    FR    IT 

 









Legend :    VFR   Marginal VFR   IFR   Intensive IFR   Very Intensive IFR
Visi :
Ceiling :
>= 8 km
>= 3000ft
5 to 8 km
1000 to 3000 ft
1500m to 5 km
500 to 1000 ft
800 to 1500m
200 to 500 ft
< 800m
< 200 ft
Symbols :   Thunderstorms  Fog  Heavy snow  Heavy precipitations  Wind > 20 kt






- Airport Elevation : 944 ft
- IATA code : ONT


KONT - Ontario International

CURRENT METAR :
  • 072053Z 26007KT 6SM -RA BR FEW020 BKN048 OVC060 13/11 A3001 RMK AO2 SLP162 P0004 60005 T01330111 58012

EXPIRED METARs :
  • 071953Z 35007KT 10SM -RA FEW033 BKN055 OVC070 15/07 A3002 RMK AO2 SLP164 P0001 T01500072
  • 071853Z 16004KT 10SM -RA FEW035 BKN055 OVC070 14/09 A3005 RMK AO2 RAE01B26 SLP174 P0000 T01440094

TAF KONT
Valid from the 07 at 20:00 until the 09 at 00:00 UTC


072024Z 0720/0824 25009KT P6SM -SHRA SCT015 BKN050
TEMPO 0721/0724 4SM -RA BKN010
FM080400 24005KT P6SM -SHRA SCT015 BKN040
FM081000 VRB03KT P6SM VCSH SCT025 BKN035
FM081900 24009KT P6SM -SHRA SCT015 BKN025



MET'MAP, your aeronautical weather chart ! - Copyright ORBIFLY December 2007 - Disclaimer

ORBIFLY MET'MAP TEAM :

Programming & Development : Alexandra Zaïnal
Concept & original design : Baudouin d'Aumeries
Assistance for programming : Marc-Olivier Méhu
Technical & hardware support : Manuel Goepfert

Contact : metmap@orbifly.com




SOURCES & CREDITS :

   NOAA       Earth
Advisory